createdAt,value
2022-12-19T00:00:18.753Z,99171.88
2022-12-19T00:03:21.929Z,99180.09
2022-12-19T00:06:25.618Z,99183.47
2022-12-19T00:09:29.191Z,99179.88
2022-12-19T00:12:33.444Z,99177.88
2022-12-19T00:15:37.065Z,99185.31
2022-12-19T00:18:40.280Z,99166.38
2022-12-19T00:21:43.013Z,99170.22
2022-12-19T00:24:45.781Z,99160.97
2022-12-19T00:27:49.870Z,99164.34
2022-12-19T00:30:54.006Z,99164.25
2022-12-19T00:33:58.885Z,99148.47
2022-12-19T00:37:01.659Z,99149.69
2022-12-19T00:40:05.379Z,99131.63
2022-12-19T00:43:09.682Z,99127.84
2022-12-19T00:46:14.895Z,99120.59
2022-12-19T00:49:17.859Z,99135.22
2022-12-19T00:52:21.309Z,99124.72
2022-12-19T00:55:25.307Z,99138.69
2022-12-19T00:58:33.224Z,99130.09
2022-12-19T01:01:41.170Z,99121.84
2022-12-19T01:04:44.651Z,99120.56
2022-12-19T01:07:47.415Z,99119.72
2022-12-19T01:10:51.417Z,99115.50
2022-12-19T01:13:55.030Z,99106.47
2022-12-19T01:16:58.012Z,99105.16
2022-12-19T01:20:01.156Z,99091.78
2022-12-19T01:23:04.240Z,99093.88
2022-12-19T01:26:07.615Z,99113.47
2022-12-19T01:29:12.012Z,99120.84
2022-12-19T01:32:15.065Z,99110.13
2022-12-19T01:35:21.779Z,99101.59
2022-12-19T01:38:25.021Z,99091.38
2022-12-19T01:41:28.181Z,99103.59
2022-12-19T01:44:35.163Z,99091.38
2022-12-19T01:47:46.532Z,99086.63
2022-12-19T01:51:01.237Z,99096.00
2022-12-19T01:54:10.969Z,99076.22
2022-12-19T01:57:16.724Z,99077.84
2022-12-19T02:00:21.641Z,99068.66
2022-12-19T02:03:29.191Z,99062.03
2022-12-19T02:06:35.996Z,99066.13
2022-12-19T02:09:38.887Z,99044.91
2022-12-19T02:12:47.519Z,99050.16
2022-12-19T02:16:00.070Z,99049.06
2022-12-19T02:19:29.298Z,99048.06
2022-12-19T02:22:44.856Z,99043.53
2022-12-19T02:26:04.604Z,99057.53
2022-12-19T02:29:30.905Z,99047.34
2022-12-19T02:32:43.388Z,99043.53
2022-12-19T02:35:55.262Z,99049.53
2022-12-19T02:39:01.932Z,99040.59
2022-12-19T02:42:08.629Z,99037.06
2022-12-19T02:45:19.206Z,99037.63
2022-12-19T02:48:28.620Z,99050.44
2022-12-19T02:51:31.341Z,99043.00
2022-12-19T02:54:34.109Z,99042.19
2022-12-19T02:57:47.661Z,99071.06
2022-12-19T03:00:56.707Z,99050.47
2022-12-19T03:04:12.581Z,99036.72
2022-12-19T03:07:25.859Z,99037.03
2022-12-19T03:10:37.590Z,99023.03
2022-12-19T03:13:45.873Z,99040.19
2022-12-19T03:16:48.927Z,99045.09
2022-12-19T03:19:53.461Z,99051.66
2022-12-19T03:22:56.593Z,99046.19
2022-12-19T03:26:05.167Z,99075.25
2022-12-19T03:29:13.694Z,99065.00
2022-12-19T03:32:18.844Z,99066.47
2022-12-19T03:35:26.126Z,99069.59
2022-12-19T03:38:30.073Z,99067.81
2022-12-19T03:41:51.883Z,99067.69
2022-12-19T03:44:56.886Z,99060.91
2022-12-19T03:48:04.739Z,99056.72
2022-12-19T03:51:18.472Z,99061.41
2022-12-19T03:54:25.630Z,99055.81
2022-12-19T03:57:32.081Z,99047.69
2022-12-19T04:00:37.677Z,99043.44
2022-12-19T04:03:40.581Z,99043.91
2022-12-19T04:06:47.351Z,99058.16
2022-12-19T04:09:50.867Z,99056.22
2022-12-19T04:12:57.341Z,99063.66
2022-12-19T04:16:09.869Z,99057.75
2022-12-19T04:19:19.778Z,99060.41
2022-12-19T04:22:30.021Z,99056.16
2022-12-19T04:25:39.775Z,99064.69
2022-12-19T04:28:48.358Z,99063.50
2022-12-19T04:31:51.768Z,99059.22
2022-12-19T04:34:55.235Z,99065.97
2022-12-19T04:37:59.962Z,99066.22
2022-12-19T04:41:02.941Z,99067.22
2022-12-19T04:44:06.163Z,99066.50
2022-12-19T04:47:09.047Z,99058.81
2022-12-19T04:50:11.920Z,99054.63
2022-12-19T04:53:16.136Z,99061.59
2022-12-19T04:56:18.876Z,99065.06
2022-12-19T04:59:21.552Z,99063.31
2022-12-19T05:02:25.202Z,99060.13
2022-12-19T05:05:28.280Z,99054.66
2022-12-19T05:08:32.615Z,99044.53
2022-12-19T05:11:36.138Z,99042.59
2022-12-19T05:14:39.384Z,99046.50
2022-12-19T05:17:43.083Z,99040.66
2022-12-19T05:20:49.798Z,99036.19
2022-12-19T05:23:53.952Z,99027.50
2022-12-19T05:26:56.633Z,99029.16
2022-12-19T05:29:59.387Z,99026.50
2022-12-19T05:33:02.265Z,99025.94
2022-12-19T05:36:05.939Z,99027.19
2022-12-19T05:39:10.038Z,99030.09
2022-12-19T05:42:13.249Z,99030.50
2022-12-19T05:45:16.184Z,99029.69
2022-12-19T05:48:19.327Z,99029.13
2022-12-19T05:51:22.287Z,99030.94
2022-12-19T05:54:26.491Z,99029.91
2022-12-19T05:57:29.377Z,99022.00
2022-12-19T06:00:32.317Z,99019.81
2022-12-19T06:03:35.135Z,99017.59
2022-12-19T06:06:38.134Z,99011.31
2022-12-19T06:09:42.429Z,99015.59
2022-12-19T06:12:45.162Z,99007.34
2022-12-19T06:15:47.948Z,99012.22
2022-12-19T06:18:50.955Z,99006.31
2022-12-19T06:21:53.685Z,99004.91
2022-12-19T06:24:58.960Z,99009.00
2022-12-19T06:28:01.795Z,99011.06
2022-12-19T06:31:06.457Z,99011.50
2022-12-19T06:34:32.996Z,99011.50
2022-12-19T06:37:39.342Z,99008.47
2022-12-19T06:41:14.267Z,99008.88
2022-12-19T06:44:18.403Z,98997.53
2022-12-19T06:47:22.807Z,98997.31
2022-12-19T06:50:25.762Z,99002.41
2022-12-19T06:53:28.631Z,99003.03
2022-12-19T06:56:37.338Z,99011.16
2022-12-19T06:59:41.014Z,99004.47
2022-12-19T07:02:47.084Z,99016.28
2022-12-19T07:05:50.011Z,99012.88
2022-12-19T07:08:54.643Z,99005.38
2022-12-19T07:11:59.320Z,99001.09
2022-12-19T07:15:02.055Z,99003.94
2022-12-19T07:18:07.985Z,99001.09
2022-12-19T07:21:12.423Z,99002.16
2022-12-19T07:24:16.016Z,98995.25
2022-12-19T07:27:20.621Z,98985.72
2022-12-19T07:30:23.578Z,98996.13
2022-12-19T07:33:26.322Z,98992.66
2022-12-19T07:36:29.038Z,99007.47
2022-12-19T07:39:32.608Z,99011.97
2022-12-19T07:42:36.839Z,99008.94
2022-12-19T07:45:40.149Z,99014.25
2022-12-19T07:48:42.993Z,99000.00
2022-12-19T07:51:45.855Z,99003.25
2022-12-19T07:54:49.148Z,99005.75
2022-12-19T07:57:53.590Z,99006.16
2022-12-19T08:00:57.134Z,99005.56
2022-12-19T08:03:59.935Z,99008.63
2022-12-19T08:07:03.292Z,99015.16
2022-12-19T08:10:07.781Z,99013.13
2022-12-19T08:13:12.545Z,99016.38
2022-12-19T08:16:16.211Z,99022.50
2022-12-19T08:19:23.406Z,99023.75
2022-12-19T08:22:30.444Z,99031.88
2022-12-19T08:25:33.367Z,99028.25
2022-12-19T08:28:38.226Z,99030.28
2022-12-19T08:31:41.060Z,99027.25
2022-12-19T08:34:43.894Z,99024.59
2022-12-19T08:37:46.641Z,99020.94
2022-12-19T08:40:54.633Z,99015.03
2022-12-19T08:43:58.768Z,99026.25
2022-12-19T08:47:02.378Z,99022.38
2022-12-19T08:50:06.315Z,99009.56
2022-12-19T08:53:09.211Z,99013.03
2022-12-19T08:56:14.512Z,99017.28
2022-12-19T08:59:30.229Z,99006.50
2022-12-19T09:02:34.330Z,99010.38
2022-12-19T09:06:05.283Z,99015.84
2022-12-19T09:09:00.711Z,99011.16
2022-12-19T09:12:03.665Z,99013.81
2022-12-19T09:15:08.673Z,99005.25
2022-12-19T09:18:11.873Z,98999.78
2022-12-19T09:21:15.421Z,99003.06
2022-12-19T09:24:18.209Z,99011.59
2022-12-19T09:27:21.798Z,99001.41
2022-12-19T09:30:29.147Z,99002.84
2022-12-19T09:33:42.962Z,99002.22
2022-12-19T09:36:46.425Z,98998.34
2022-12-19T09:39:50.081Z,99004.84
2022-12-19T09:43:05.233Z,99005.63
2022-12-19T09:46:17.156Z,98990.91
2022-12-19T09:49:23.290Z,99001.50
2022-12-19T09:52:33.031Z,98994.97
2022-12-19T09:55:41.074Z,98988.41
2022-12-19T09:58:48.258Z,98984.72
2022-12-19T10:01:58.796Z,98981.66
2022-12-19T10:05:41.542Z,98978.41
2022-12-19T10:08:40.578Z,98977.41
2022-12-19T10:12:44.271Z,98979.38
2022-12-19T10:15:56.265Z,98968.53
2022-12-19T10:19:08.144Z,98951.09
2022-12-19T10:22:19.882Z,98947.72
2022-12-19T10:25:37.337Z,98951.47
2022-12-19T10:29:02.417Z,98955.97
2022-12-19T10:32:19.512Z,98955.09
2022-12-19T10:35:28.512Z,98948.91
2022-12-19T10:38:38.918Z,98940.53
2022-12-19T10:41:50.493Z,98932.47
2022-12-19T10:44:55.286Z,98935.31
2022-12-19T10:47:59.430Z,98938.75
2022-12-19T10:51:06.938Z,98944.66
2022-12-19T10:54:10.467Z,98934.53
2022-12-19T10:57:23.309Z,98942.78
2022-12-19T11:00:26.213Z,98924.84
2022-12-19T11:03:29.237Z,98906.88
2022-12-19T11:06:47.364Z,98905.75
2022-12-19T11:10:05.348Z,98890.50
2022-12-19T11:18:08.704Z,98895.84
2022-12-19T11:21:12.817Z,98899.94
2022-12-19T11:29:43.774Z,98898.19
2022-12-19T11:29:46.779Z,98881.56
2022-12-19T11:30:49.023Z,98895.97
2022-12-19T11:31:55.664Z,98887.59
2022-12-19T11:34:25.492Z,98889.19
2022-12-19T11:37:38.235Z,98879.59
2022-12-19T11:40:49.433Z,98873.69
2022-12-19T11:43:58.897Z,98859.75
2022-12-19T11:47:13.911Z,98866.16
2022-12-19T11:50:20.053Z,98863.13
2022-12-19T11:53:29.827Z,98855.28
2022-12-19T11:56:36.213Z,98853.97
2022-12-19T11:59:41.216Z,98847.25
2022-12-19T12:03:03.135Z,98846.63
2022-12-19T12:06:13.813Z,98848.13
2022-12-19T12:13:41.868Z,98846.56
2022-12-19T12:22:29.125Z,98838.91
2022-12-19T12:28:57.070Z,98837.38
2022-12-19T12:31:00.296Z,98845.56
2022-12-19T12:31:38.740Z,98835.56
2022-12-19T12:31:51.384Z,98825.25
2022-12-19T12:31:52.736Z,98835.72
2022-12-19T12:35:56.481Z,98826.97
2022-12-19T12:38:22.066Z,98825.13
2022-12-19T12:41:56.235Z,98822.94
2022-12-19T12:45:00.616Z,98810.06
2022-12-19T12:48:16.489Z,98808.34
2022-12-19T12:51:19.596Z,98809.50
2022-12-19T12:54:25.352Z,98807.06
2022-12-19T12:57:36.740Z,98806.25
2022-12-19T13:00:39.728Z,98801.81
2022-12-19T13:03:52.378Z,98802.16
2022-12-19T13:07:40.168Z,98796.94
2022-12-19T13:10:54.827Z,98791.06
2022-12-19T13:13:58.536Z,98799.03
2022-12-19T13:17:02.686Z,98795.38
2022-12-19T13:20:41.865Z,98793.16
2022-12-19T13:23:47.699Z,98799.47
2022-12-19T13:26:52.517Z,98791.06
2022-12-19T13:30:03.680Z,98798.94
2022-12-19T13:33:09.620Z,98795.56
2022-12-19T13:39:51.353Z,98795.25
2022-12-19T13:40:20.520Z,98796.19
2022-12-19T13:43:47.562Z,98799.28
2022-12-19T13:46:50.942Z,98797.47
2022-12-19T13:49:54.907Z,98801.75
2022-12-19T13:52:59.754Z,98810.88
2022-12-19T13:56:05.221Z,98809.47
2022-12-19T13:59:09.112Z,98800.44
2022-12-19T14:02:21.535Z,98803.84
2022-12-19T14:05:44.440Z,98807.50
2022-12-19T14:09:46.296Z,98814.41
2022-12-19T14:13:55.160Z,98820.28
2022-12-19T14:15:59.755Z,98815.06
2022-12-19T14:19:03.890Z,98810.03
2022-12-19T14:22:25.818Z,98813.69
2022-12-19T14:28:15.324Z,98818.34
2022-12-19T14:29:05.181Z,98822.34
2022-12-19T14:33:45.213Z,98814.25
2022-12-19T14:36:09.880Z,98825.16
2022-12-19T14:39:22.370Z,98820.72
2022-12-19T14:43:57.176Z,98812.81
2022-12-19T14:52:27.892Z,98816.56
2022-12-19T14:54:13.316Z,98811.03
2022-12-19T14:54:33.738Z,98814.38
2022-12-19T14:56:59.069Z,98819.38
2022-12-19T15:01:07.746Z,98811.03
2022-12-19T15:04:48.981Z,98811.91
2022-12-19T15:07:22.123Z,98813.00
2022-12-19T15:11:07.819Z,98820.00
2022-12-19T15:14:56.894Z,98818.38
2022-12-19T15:17:22.537Z,98802.47
2022-12-19T15:20:25.299Z,98797.03
2022-12-19T15:23:30.056Z,98799.09
2022-12-19T15:26:35.643Z,98801.38
2022-12-19T15:29:38.881Z,98796.56
2022-12-19T15:32:48.943Z,98812.75
2022-12-19T15:35:51.680Z,98801.38
2022-12-19T15:38:54.491Z,98803.47
2022-12-19T15:42:00.778Z,98811.41
2022-12-19T15:45:03.574Z,98800.00
2022-12-19T15:48:10.493Z,98806.94
2022-12-19T15:51:14.498Z,98803.25
2022-12-19T15:57:43.869Z,98796.75
2022-12-19T16:00:51.825Z,98802.28
2022-12-19T16:03:57.854Z,98797.59
2022-12-19T16:07:00.726Z,98795.38
2022-12-19T16:10:03.715Z,98800.09
2022-12-19T16:13:06.469Z,98791.97
2022-12-19T16:16:15.764Z,98799.53
2022-12-19T16:19:31.517Z,98796.50
2022-12-19T16:22:34.770Z,98788.97
2022-12-19T16:25:41.295Z,98783.47
2022-12-19T16:28:44.048Z,98787.59
2022-12-19T16:31:46.911Z,98791.50
2022-12-19T16:34:51.794Z,98774.59
2022-12-19T16:37:54.781Z,98770.75
2022-12-19T16:40:58.261Z,98766.47
2022-12-19T16:44:01.915Z,98771.59
2022-12-19T16:47:04.781Z,98784.03
2022-12-19T16:50:16.029Z,98779.97
2022-12-19T16:53:19.162Z,98765.88
2022-12-19T16:56:31.354Z,98764.84
2022-12-19T16:59:36.740Z,98754.59
2022-12-19T17:02:44.787Z,98760.34
2022-12-19T17:05:48.924Z,98764.91
2022-12-19T17:08:51.591Z,98764.88
2022-12-19T17:11:58.055Z,98765.25
2022-12-19T17:15:00.738Z,98756.38
2022-12-19T17:18:10.834Z,98762.06
2022-12-19T17:21:19.039Z,98761.19
2022-12-19T17:24:21.673Z,98758.72
2022-12-19T17:27:25.744Z,98762.94
2022-12-19T17:30:28.415Z,98758.25
2022-12-19T17:33:35.410Z,98766.00
2022-12-19T17:36:39.471Z,98780.19
2022-12-19T17:39:42.739Z,98769.97
2022-12-19T17:42:45.537Z,98765.31
2022-12-19T17:45:48.780Z,98779.03
2022-12-19T17:48:53.711Z,98774.31
2022-12-19T17:51:58.392Z,98782.28
2022-12-19T17:55:01.081Z,98774.31
2022-12-19T17:58:03.712Z,98782.16
2022-12-19T18:01:06.707Z,98778.31
2022-12-19T18:04:14.849Z,98783.81
2022-12-19T18:07:20.189Z,98784.47
2022-12-19T18:10:25.868Z,98782.91
2022-12-19T18:13:30.295Z,98784.09
2022-12-19T18:16:33.756Z,98780.69
2022-12-19T18:19:36.931Z,98789.13
2022-12-19T18:22:42.683Z,98793.44
2022-12-19T18:25:45.705Z,98792.63
2022-12-19T18:28:49.006Z,98794.09
2022-12-19T18:31:52.406Z,98792.88
2022-12-19T18:34:55.163Z,98788.19
2022-12-19T18:38:01.528Z,98779.03
2022-12-19T18:41:04.280Z,98778.66
2022-12-19T18:44:06.934Z,98781.75
2022-12-19T18:47:20.710Z,98782.38
2022-12-19T18:50:26.295Z,98777.06
2022-12-19T18:53:35.376Z,98777.69
2022-12-19T18:56:38.674Z,98779.69
2022-12-19T18:59:41.420Z,98784.41
2022-12-19T19:02:49.190Z,98785.22
2022-12-19T19:05:52.373Z,98788.25
2022-12-19T19:08:58.441Z,98780.06
2022-12-19T19:12:01.506Z,98777.66
2022-12-19T19:15:04.147Z,98778.63
2022-12-19T19:18:09.367Z,98774.13
2022-12-19T19:21:14.374Z,98774.91
2022-12-19T19:24:21.853Z,98776.31
2022-12-19T19:27:24.959Z,98777.28
2022-12-19T19:30:28.019Z,98774.50
2022-12-19T19:33:34.243Z,98770.75
2022-12-19T19:36:41.103Z,98758.44
2022-12-19T19:39:45.804Z,98766.50
2022-12-19T19:42:48.455Z,98758.59
2022-12-19T19:45:51.885Z,98757.66
2022-12-19T19:48:54.631Z,98760.38
2022-12-19T19:52:02.444Z,98762.69
2022-12-19T19:55:09.407Z,98752.94
2022-12-19T19:58:12.095Z,98755.81
2022-12-19T20:01:15.416Z,98753.97
2022-12-19T20:04:18.501Z,98752.94
2022-12-19T20:07:21.178Z,98749.09
2022-12-19T20:10:25.368Z,98761.91
2022-12-19T20:13:30.160Z,98755.75
2022-12-19T20:16:33.517Z,98748.25
2022-12-19T20:19:36.280Z,98753.31
2022-12-19T20:22:38.960Z,98762.13
2022-12-19T20:25:43.261Z,98762.38
2022-12-19T20:28:49.335Z,98769.13
2022-12-19T20:31:52.916Z,98781.38
2022-12-19T20:34:55.579Z,98770.56
2022-12-19T20:38:00.398Z,98772.63
2022-12-19T20:41:05.048Z,98772.84
2022-12-19T20:44:07.733Z,98768.38
2022-12-19T20:47:10.846Z,98773.06
2022-12-19T20:50:16.019Z,98772.25
2022-12-19T20:53:18.917Z,98768.75
2022-12-19T20:56:25.847Z,98765.47
2022-12-19T20:59:28.542Z,98768.72
2022-12-19T21:02:52.492Z,98772.97
2022-12-19T21:05:54.391Z,98768.50
2022-12-19T21:08:58.117Z,98770.31
2022-12-19T21:12:02.152Z,98771.97
2022-12-19T21:15:05.414Z,98779.09
2022-12-19T21:18:12.367Z,98770.69
2022-12-19T21:21:25.043Z,98770.28
2022-12-19T21:24:34.596Z,98772.72
2022-12-19T21:27:49.152Z,98780.44
2022-12-19T21:31:01.887Z,98782.09
2022-12-19T21:34:13.267Z,98777.97
2022-12-19T21:37:25.347Z,98778.94
2022-12-19T21:40:41.847Z,98771.09
2022-12-19T21:43:55.715Z,98774.94
2022-12-19T21:50:57.573Z,98781.22
2022-12-19T21:54:13.547Z,98780.63
2022-12-19T21:57:21.812Z,98788.97
2022-12-19T22:00:30.321Z,98790.31
2022-12-19T22:03:37.022Z,98788.41
2022-12-19T22:06:43.095Z,98791.28
2022-12-19T22:09:50.116Z,98788.25
2022-12-19T22:12:55.801Z,98784.22
2022-12-19T22:16:06.812Z,98788.91
2022-12-19T22:19:18.115Z,98780.50
2022-12-19T22:22:24.683Z,98775.75
2022-12-19T22:25:30.386Z,98775.75
2022-12-19T22:28:40.650Z,98781.06
2022-12-19T22:31:50.785Z,98771.91
2022-12-19T22:34:57.797Z,98780.88
2022-12-19T22:38:06.786Z,98782.72
2022-12-19T22:41:13.096Z,98790.31
2022-12-19T22:44:22.083Z,98776.44
2022-12-19T22:47:31.582Z,98775.66
2022-12-19T22:50:39.638Z,98774.81
2022-12-19T22:53:46.204Z,98764.72
2022-12-19T22:56:53.989Z,98762.25
2022-12-19T23:03:28.768Z,98765.63
2022-12-19T23:06:45.008Z,98761.38
2022-12-19T23:10:00.689Z,98756.72
2022-12-19T23:13:21.108Z,98762.25
2022-12-19T23:16:37.441Z,98759.72
2022-12-19T23:19:46.673Z,98762.69
2022-12-19T23:23:03.956Z,98768.59
2022-12-19T23:26:15.902Z,98756.94
2022-12-19T23:29:28.751Z,98763.53
2022-12-19T23:32:37.184Z,98759.44
2022-12-19T23:35:50.860Z,98761.22
2022-12-19T23:39:10.664Z,98758.56
2022-12-19T23:42:26.717Z,98750.59
2022-12-19T23:45:49.846Z,98740.88
2022-12-19T23:49:20.788Z,98738.56
2022-12-19T23:52:34.351Z,98747.22
2022-12-19T23:55:44.099Z,98749.06
2022-12-19T23:58:52.628Z,98758.88
